sensor_id;sensor_type;location;lat;lon;timestamp;P1;durP1;ratioP1;P2;durP2;ratioP2
8716;SDS011;4395;48.554;8.820;2023-06-22T00:00:08;8.37;;;7.40;;
8716;SDS011;4395;48.554;8.820;2023-06-22T00:02:13;10.70;;;8.60;;
8716;SDS011;4395;48.554;8.820;2023-06-22T00:04:16;8.83;;;7.67;;
8716;SDS011;4395;48.554;8.820;2023-06-22T00:06:21;8.03;;;7.23;;
8716;SDS011;4395;48.554;8.820;2023-06-22T00:08:23;9.00;;;8.10;;
8716;SDS011;4395;48.554;8.820;2023-06-22T00:10:26;8.63;;;7.93;;
8716;SDS011;4395;48.554;8.820;2023-06-22T00:12:30;8.17;;;7.17;;
8716;SDS011;4395;48.554;8.820;2023-06-22T00:14:33;7.80;;;7.00;;
8716;SDS011;4395;48.554;8.820;2023-06-22T00:16:36;10.67;;;9.30;;
8716;SDS011;4395;48.554;8.820;2023-06-22T00:18:39;9.73;;;7.50;;
8716;SDS011;4395;48.554;8.820;2023-06-22T00:20:48;8.43;;;7.27;;
8716;SDS011;4395;48.554;8.820;2023-06-22T00:22:52;10.07;;;9.13;;
8716;SDS011;4395;48.554;8.820;2023-06-22T00:24:55;7.97;;;7.23;;
8716;SDS011;4395;48.554;8.820;2023-06-22T00:26:57;10.60;;;8.77;;
8716;SDS011;4395;48.554;8.820;2023-06-22T00:29:00;10.27;;;7.97;;
8716;SDS011;4395;48.554;8.820;2023-06-22T00:31:04;9.07;;;7.97;;
8716;SDS011;4395;48.554;8.820;2023-06-22T00:33:07;9.93;;;8.40;;
8716;SDS011;4395;48.554;8.820;2023-06-22T00:35:10;9.07;;;8.10;;
8716;SDS011;4395;48.554;8.820;2023-06-22T00:37:14;10.00;;;7.43;;
8716;SDS011;4395;48.554;8.820;2023-06-22T00:39:18;10.93;;;9.33;;
8716;SDS011;4395;48.554;8.820;2023-06-22T00:41:20;12.13;;;9.00;;
8716;SDS011;4395;48.554;8.820;2023-06-22T00:43:23;10.63;;;8.43;;
8716;SDS011;4395;48.554;8.820;2023-06-22T00:45:26;8.43;;;7.57;;
8716;SDS011;4395;48.554;8.820;2023-06-22T00:47:29;9.27;;;7.70;;
8716;SDS011;4395;48.554;8.820;2023-06-22T00:49:32;9.80;;;8.77;;
8716;SDS011;4395;48.554;8.820;2023-06-22T00:51:35;10.90;;;9.80;;
8716;SDS011;4395;48.554;8.820;2023-06-22T00:53:39;9.57;;;8.67;;
8716;SDS011;4395;48.554;8.820;2023-06-22T00:55:44;9.67;;;8.60;;
8716;SDS011;4395;48.554;8.820;2023-06-22T00:57:48;11.57;;;9.20;;
8716;SDS011;4395;48.554;8.820;2023-06-22T00:59:51;10.40;;;8.30;;
8716;SDS011;4395;48.554;8.820;2023-06-22T01:01:54;12.80;;;7.97;;
8716;SDS011;4395;48.554;8.820;2023-06-22T01:03:59;9.50;;;8.03;;
8716;SDS011;4395;48.554;8.820;2023-06-22T01:06:05;8.57;;;7.67;;
8716;SDS011;4395;48.554;8.820;2023-06-22T01:08:16;10.60;;;9.57;;
8716;SDS011;4395;48.554;8.820;2023-06-22T01:10:32;10.17;;;8.87;;
8716;SDS011;4395;48.554;8.820;2023-06-22T01:12:44;9.13;;;7.97;;
8716;SDS011;4395;48.554;8.820;2023-06-22T01:14:53;9.07;;;7.83;;
8716;SDS011;4395;48.554;8.820;2023-06-22T01:17:00;8.30;;;7.60;;
8716;SDS011;4395;48.554;8.820;2023-06-22T01:19:08;9.87;;;8.57;;
8716;SDS011;4395;48.554;8.820;2023-06-22T01:21:20;8.50;;;7.70;;
8716;SDS011;4395;48.554;8.820;2023-06-22T01:23:26;10.67;;;7.53;;
8716;SDS011;4395;48.554;8.820;2023-06-22T01:25:37;15.23;;;8.47;;
8716;SDS011;4395;48.554;8.820;2023-06-22T01:27:50;10.73;;;9.63;;
8716;SDS011;4395;48.554;8.820;2023-06-22T01:30:04;9.63;;;8.63;;
8716;SDS011;4395;48.554;8.820;2023-06-22T01:32:11;11.53;;;9.03;;
8716;SDS011;4395;48.554;8.820;2023-06-22T01:34:15;10.37;;;8.97;;
8716;SDS011;4395;48.554;8.820;2023-06-22T01:36:20;9.57;;;8.57;;
8716;SDS011;4395;48.554;8.820;2023-06-22T01:38:24;12.67;;;8.87;;
8716;SDS011;4395;48.554;8.820;2023-06-22T01:40:27;10.30;;;7.70;;
8716;SDS011;4395;48.554;8.820;2023-06-22T01:42:32;9.43;;;8.37;;
8716;SDS011;4395;48.554;8.820;2023-06-22T01:44:36;8.23;;;7.43;;
8716;SDS011;4395;48.554;8.820;2023-06-22T01:46:44;11.67;;;9.37;;
8716;SDS011;4395;48.554;8.820;2023-06-22T01:48:48;10.30;;;8.13;;
8716;SDS011;4395;48.554;8.820;2023-06-22T01:50:52;13.27;;;7.40;;
8716;SDS011;4395;48.554;8.820;2023-06-22T01:52:55;9.77;;;7.30;;
8716;SDS011;4395;48.554;8.820;2023-06-22T01:55:00;11.83;;;10.03;;
8716;SDS011;4395;48.554;8.820;2023-06-22T01:57:03;13.73;;;9.83;;
8716;SDS011;4395;48.554;8.820;2023-06-22T01:59:09;10.73;;;7.73;;
8716;SDS011;4395;48.554;8.820;2023-06-22T02:01:18;13.07;;;8.63;;
8716;SDS011;4395;48.554;8.820;2023-06-22T02:03:30;11.80;;;9.13;;
8716;SDS011;4395;48.554;8.820;2023-06-22T02:05:37;11.90;;;10.03;;
8716;SDS011;4395;48.554;8.820;2023-06-22T02:07:44;8.67;;;7.87;;
8716;SDS011;4395;48.554;8.820;2023-06-22T02:09:52;12.87;;;9.87;;
8716;SDS011;4395;48.554;8.820;2023-06-22T02:11:57;15.23;;;10.03;;
8716;SDS011;4395;48.554;8.820;2023-06-22T02:14:02;11.37;;;10.20;;
8716;SDS011;4395;48.554;8.820;2023-06-22T02:16:07;11.60;;;10.30;;
8716;SDS011;4395;48.554;8.820;2023-06-22T02:18:10;10.33;;;8.50;;
8716;SDS011;4395;48.554;8.820;2023-06-22T02:20:15;8.40;;;7.50;;
8716;SDS011;4395;48.554;8.820;2023-06-22T02:22:18;9.17;;;8.17;;
8716;SDS011;4395;48.554;8.820;2023-06-22T02:24:20;10.00;;;9.00;;
8716;SDS011;4395;48.554;8.820;2023-06-22T02:26:25;11.33;;;9.20;;
8716;SDS011;4395;48.554;8.820;2023-06-22T02:28:28;11.77;;;10.57;;
8716;SDS011;4395;48.554;8.820;2023-06-22T02:30:31;9.67;;;8.50;;
8716;SDS011;4395;48.554;8.820;2023-06-22T02:32:34;12.10;;;9.73;;
8716;SDS011;4395;48.554;8.820;2023-06-22T02:34:37;9.23;;;7.73;;
8716;SDS011;4395;48.554;8.820;2023-06-22T02:36:41;10.60;;;9.50;;
8716;SDS011;4395;48.554;8.820;2023-06-22T02:38:52;11.03;;;9.80;;
8716;SDS011;4395;48.554;8.820;2023-06-22T02:40:57;10.20;;;8.17;;
8716;SDS011;4395;48.554;8.820;2023-06-22T02:43:00;13.27;;;10.10;;
8716;SDS011;4395;48.554;8.820;2023-06-22T02:45:04;11.50;;;10.27;;
8716;SDS011;4395;48.554;8.820;2023-06-22T02:47:08;9.97;;;8.83;;
8716;SDS011;4395;48.554;8.820;2023-06-22T02:49:11;10.50;;;8.50;;
8716;SDS011;4395;48.554;8.820;2023-06-22T02:51:14;8.50;;;7.70;;
8716;SDS011;4395;48.554;8.820;2023-06-22T02:53:18;10.17;;;7.73;;
8716;SDS011;4395;48.554;8.820;2023-06-22T02:55:22;10.43;;;8.23;;
8716;SDS011;4395;48.554;8.820;2023-06-22T02:57:29;11.23;;;8.53;;
8716;SDS011;4395;48.554;8.820;2023-06-22T02:59:32;8.90;;;7.53;;
8716;SDS011;4395;48.554;8.820;2023-06-22T03:01:42;11.27;;;8.97;;
8716;SDS011;4395;48.554;8.820;2023-06-22T03:03:53;11.23;;;7.67;;
8716;SDS011;4395;48.554;8.820;2023-06-22T03:05:56;13.87;;;10.97;;
8716;SDS011;4395;48.554;8.820;2023-06-22T03:07:59;13.40;;;9.90;;
8716;SDS011;4395;48.554;8.820;2023-06-22T03:10:08;13.60;;;10.07;;
8716;SDS011;4395;48.554;8.820;2023-06-22T03:12:12;11.80;;;7.23;;
8716;SDS011;4395;48.554;8.820;2023-06-22T03:14:22;13.27;;;9.70;;
8716;SDS011;4395;48.554;8.820;2023-06-22T03:16:26;11.80;;;8.60;;
8716;SDS011;4395;48.554;8.820;2023-06-22T03:18:31;10.47;;;8.00;;
8716;SDS011;4395;48.554;8.820;2023-06-22T03:20:34;13.27;;;9.63;;
8716;SDS011;4395;48.554;8.820;2023-06-22T03:22:36;14.40;;;9.60;;
8716;SDS011;4395;48.554;8.820;2023-06-22T03:24:40;14.03;;;10.03;;
8716;SDS011;4395;48.554;8.820;2023-06-22T03:26:44;10.03;;;8.90;;
8716;SDS011;4395;48.554;8.820;2023-06-22T03:28:48;11.27;;;7.83;;
8716;SDS011;4395;48.554;8.820;2023-06-22T03:30:51;13.50;;;10.00;;
8716;SDS011;4395;48.554;8.820;2023-06-22T03:32:53;11.47;;;9.83;;
8716;SDS011;4395;48.554;8.820;2023-06-22T03:34:56;14.90;;;11.00;;
8716;SDS011;4395;48.554;8.820;2023-06-22T03:37:01;11.57;;;9.73;;
8716;SDS011;4395;48.554;8.820;2023-06-22T03:39:04;12.20;;;8.63;;
8716;SDS011;4395;48.554;8.820;2023-06-22T03:41:07;11.67;;;7.60;;
8716;SDS011;4395;48.554;8.820;2023-06-22T03:43:11;8.93;;;7.63;;
8716;SDS011;4395;48.554;8.820;2023-06-22T03:45:14;8.27;;;7.47;;
8716;SDS011;4395;48.554;8.820;2023-06-22T03:47:17;9.27;;;7.83;;
8716;SDS011;4395;48.554;8.820;2023-06-22T03:49:20;11.20;;;8.03;;
8716;SDS011;4395;48.554;8.820;2023-06-22T03:51:23;9.17;;;7.70;;
8716;SDS011;4395;48.554;8.820;2023-06-22T03:53:25;10.40;;;7.37;;
8716;SDS011;4395;48.554;8.820;2023-06-22T03:55:28;9.30;;;7.10;;
8716;SDS011;4395;48.554;8.820;2023-06-22T03:57:31;9.10;;;6.87;;
8716;SDS011;4395;48.554;8.820;2023-06-22T03:59:35;12.20;;;7.60;;
8716;SDS011;4395;48.554;8.820;2023-06-22T04:01:38;10.63;;;9.20;;
8716;SDS011;4395;48.554;8.820;2023-06-22T04:03:41;10.00;;;6.90;;
8716;SDS011;4395;48.554;8.820;2023-06-22T04:05:43;10.43;;;6.83;;
8716;SDS011;4395;48.554;8.820;2023-06-22T04:07:47;8.33;;;7.20;;
8716;SDS011;4395;48.554;8.820;2023-06-22T04:09:49;11.27;;;7.70;;
8716;SDS011;4395;48.554;8.820;2023-06-22T04:11:52;9.40;;;7.53;;
8716;SDS011;4395;48.554;8.820;2023-06-22T04:13:55;13.03;;;8.93;;
8716;SDS011;4395;48.554;8.820;2023-06-22T04:15:59;11.13;;;7.47;;
8716;SDS011;4395;48.554;8.820;2023-06-22T04:18:03;11.33;;;9.83;;
8716;SDS011;4395;48.554;8.820;2023-06-22T04:20:06;10.50;;;6.90;;
8716;SDS011;4395;48.554;8.820;2023-06-22T04:22:10;9.27;;;7.40;;
8716;SDS011;4395;48.554;8.820;2023-06-22T04:24:13;13.00;;;9.03;;
8716;SDS011;4395;48.554;8.820;2023-06-22T04:26:15;12.47;;;9.93;;
8716;SDS011;4395;48.554;8.820;2023-06-22T04:28:18;9.87;;;8.87;;
8716;SDS011;4395;48.554;8.820;2023-06-22T04:30:21;9.27;;;8.37;;
8716;SDS011;4395;48.554;8.820;2023-06-22T04:32:25;11.70;;;8.47;;
8716;SDS011;4395;48.554;8.820;2023-06-22T04:34:28;10.57;;;8.70;;
8716;SDS011;4395;48.554;8.820;2023-06-22T04:36:32;8.47;;;7.27;;
8716;SDS011;4395;48.554;8.820;2023-06-22T04:38:38;8.90;;;7.97;;
8716;SDS011;4395;48.554;8.820;2023-06-22T04:40:41;9.43;;;8.40;;
8716;SDS011;4395;48.554;8.820;2023-06-22T04:42:44;13.40;;;9.83;;
8716;SDS011;4395;48.554;8.820;2023-06-22T04:44:54;9.70;;;8.60;;
8716;SDS011;4395;48.554;8.820;2023-06-22T04:46:57;12.20;;;9.67;;
8716;SDS011;4395;48.554;8.820;2023-06-22T04:49:05;13.77;;;9.37;;
8716;SDS011;4395;48.554;8.820;2023-06-22T04:51:11;13.53;;;9.60;;
8716;SDS011;4395;48.554;8.820;2023-06-22T04:53:13;11.77;;;10.07;;
8716;SDS011;4395;48.554;8.820;2023-06-22T04:55:16;13.60;;;9.90;;
8716;SDS011;4395;48.554;8.820;2023-06-22T04:57:21;13.33;;;10.00;;
8716;SDS011;4395;48.554;8.820;2023-06-22T04:59:34;10.60;;;8.93;;
8716;SDS011;4395;48.554;8.820;2023-06-22T05:01:36;10.53;;;9.47;;
8716;SDS011;4395;48.554;8.820;2023-06-22T05:03:39;11.53;;;9.10;;
8716;SDS011;4395;48.554;8.820;2023-06-22T05:05:44;12.50;;;9.47;;
8716;SDS011;4395;48.554;8.820;2023-06-22T05:07:49;13.20;;;8.87;;
8716;SDS011;4395;48.554;8.820;2023-06-22T05:09:54;11.63;;;8.87;;
8716;SDS011;4395;48.554;8.820;2023-06-22T05:11:56;11.07;;;8.83;;
8716;SDS011;4395;48.554;8.820;2023-06-22T05:14:00;12.50;;;8.63;;
8716;SDS011;4395;48.554;8.820;2023-06-22T05:16:03;11.73;;;8.57;;
8716;SDS011;4395;48.554;8.820;2023-06-22T05:18:07;11.30;;;9.07;;
8716;SDS011;4395;48.554;8.820;2023-06-22T05:20:10;12.23;;;9.20;;
8716;SDS011;4395;48.554;8.820;2023-06-22T05:22:16;10.83;;;9.63;;
8716;SDS011;4395;48.554;8.820;2023-06-22T05:24:19;12.97;;;9.97;;
8716;SDS011;4395;48.554;8.820;2023-06-22T05:26:22;10.27;;;9.33;;
8716;SDS011;4395;48.554;8.820;2023-06-22T05:28:24;11.27;;;9.70;;
8716;SDS011;4395;48.554;8.820;2023-06-22T05:30:27;13.67;;;8.77;;
8716;SDS011;4395;48.554;8.820;2023-06-22T05:32:30;11.43;;;9.03;;
8716;SDS011;4395;48.554;8.820;2023-06-22T05:34:33;10.27;;;9.23;;
8716;SDS011;4395;48.554;8.820;2023-06-22T05:36:36;10.40;;;9.30;;
8716;SDS011;4395;48.554;8.820;2023-06-22T05:38:40;13.97;;;9.37;;
8716;SDS011;4395;48.554;8.820;2023-06-22T05:40:43;12.93;;;9.80;;
8716;SDS011;4395;48.554;8.820;2023-06-22T05:42:46;11.53;;;8.57;;
8716;SDS011;4395;48.554;8.820;2023-06-22T05:44:49;10.90;;;8.57;;
8716;SDS011;4395;48.554;8.820;2023-06-22T05:46:51;10.63;;;8.33;;
8716;SDS011;4395;48.554;8.820;2023-06-22T05:48:54;9.57;;;8.53;;
8716;SDS011;4395;48.554;8.820;2023-06-22T05:50:57;10.97;;;8.80;;
8716;SDS011;4395;48.554;8.820;2023-06-22T05:53:00;9.10;;;8.20;;
8716;SDS011;4395;48.554;8.820;2023-06-22T05:55:04;9.47;;;8.40;;
8716;SDS011;4395;48.554;8.820;2023-06-22T05:57:08;9.90;;;8.30;;
8716;SDS011;4395;48.554;8.820;2023-06-22T05:59:11;12.93;;;8.20;;
8716;SDS011;4395;48.554;8.820;2023-06-22T06:01:13;8.47;;;7.57;;
8716;SDS011;4395;48.554;8.820;2023-06-22T06:03:17;12.13;;;8.90;;
8716;SDS011;4395;48.554;8.820;2023-06-22T06:05:20;9.97;;;7.97;;
8716;SDS011;4395;48.554;8.820;2023-06-22T06:07:24;10.13;;;7.60;;
8716;SDS011;4395;48.554;8.820;2023-06-22T06:09:27;8.97;;;7.83;;
8716;SDS011;4395;48.554;8.820;2023-06-22T06:11:31;12.27;;;8.13;;
8716;SDS011;4395;48.554;8.820;2023-06-22T06:13:34;8.63;;;7.40;;
8716;SDS011;4395;48.554;8.820;2023-06-22T06:15:37;8.87;;;7.70;;
8716;SDS011;4395;48.554;8.820;2023-06-22T06:17:45;8.30;;;7.50;;
8716;SDS011;4395;48.554;8.820;2023-06-22T06:19:48;9.03;;;7.63;;
8716;SDS011;4395;48.554;8.820;2023-06-22T06:21:51;8.67;;;7.27;;
8716;SDS011;4395;48.554;8.820;2023-06-22T06:23:54;8.20;;;7.07;;
8716;SDS011;4395;48.554;8.820;2023-06-22T06:25:56;10.00;;;6.77;;
8716;SDS011;4395;48.554;8.820;2023-06-22T06:28:01;12.20;;;7.37;;
8716;SDS011;4395;48.554;8.820;2023-06-22T06:30:04;10.33;;;7.70;;
8716;SDS011;4395;48.554;8.820;2023-06-22T06:32:08;9.30;;;7.30;;
8716;SDS011;4395;48.554;8.820;2023-06-22T06:34:11;9.30;;;6.87;;
8716;SDS011;4395;48.554;8.820;2023-06-22T06:36:13;11.90;;;7.13;;
8716;SDS011;4395;48.554;8.820;2023-06-22T06:38:17;14.73;;;7.20;;
8716;SDS011;4395;48.554;8.820;2023-06-22T06:40:19;9.30;;;7.23;;
8716;SDS011;4395;48.554;8.820;2023-06-22T06:42:22;8.37;;;6.40;;
8716;SDS011;4395;48.554;8.820;2023-06-22T06:44:26;7.47;;;6.23;;
8716;SDS011;4395;48.554;8.820;2023-06-22T06:46:29;10.43;;;7.20;;
8716;SDS011;4395;48.554;8.820;2023-06-22T06:48:32;11.10;;;6.53;;
8716;SDS011;4395;48.554;8.820;2023-06-22T06:50:35;13.80;;;6.73;;
8716;SDS011;4395;48.554;8.820;2023-06-22T06:52:38;10.73;;;6.17;;
8716;SDS011;4395;48.554;8.820;2023-06-22T06:54:41;7.83;;;6.10;;
8716;SDS011;4395;48.554;8.820;2023-06-22T06:56:44;7.87;;;6.47;;
8716;SDS011;4395;48.554;8.820;2023-06-22T06:58:50;9.57;;;5.93;;
8716;SDS011;4395;48.554;8.820;2023-06-22T07:00:54;8.97;;;5.83;;
8716;SDS011;4395;48.554;8.820;2023-06-22T07:02:57;9.57;;;6.30;;
8716;SDS011;4395;48.554;8.820;2023-06-22T07:05:00;9.03;;;5.90;;
8716;SDS011;4395;48.554;8.820;2023-06-22T07:07:05;7.07;;;6.37;;
8716;SDS011;4395;48.554;8.820;2023-06-22T07:09:08;7.07;;;6.00;;
8716;SDS011;4395;48.554;8.820;2023-06-22T07:11:11;6.70;;;5.53;;
8716;SDS011;4395;48.554;8.820;2023-06-22T07:13:14;10.10;;;5.93;;
8716;SDS011;4395;48.554;8.820;2023-06-22T07:15:16;8.70;;;5.93;;
8716;SDS011;4395;48.554;8.820;2023-06-22T07:17:21;12.27;;;6.10;;
8716;SDS011;4395;48.554;8.820;2023-06-22T07:19:24;10.47;;;6.40;;
8716;SDS011;4395;48.554;8.820;2023-06-22T07:21:28;11.40;;;6.00;;
8716;SDS011;4395;48.554;8.820;2023-06-22T07:23:30;12.17;;;6.07;;
8716;SDS011;4395;48.554;8.820;2023-06-22T07:25:33;6.40;;;5.80;;
8716;SDS011;4395;48.554;8.820;2023-06-22T07:27:36;11.30;;;6.23;;
8716;SDS011;4395;48.554;8.820;2023-06-22T07:29:41;10.57;;;5.93;;
8716;SDS011;4395;48.554;8.820;2023-06-22T07:31:44;7.77;;;6.20;;
8716;SDS011;4395;48.554;8.820;2023-06-22T07:33:48;7.70;;;5.57;;
8716;SDS011;4395;48.554;8.820;2023-06-22T07:35:51;8.90;;;6.40;;
8716;SDS011;4395;48.554;8.820;2023-06-22T07:37:54;9.30;;;6.60;;
8716;SDS011;4395;48.554;8.820;2023-06-22T07:39:57;8.43;;;5.63;;
8716;SDS011;4395;48.554;8.820;2023-06-22T07:42:00;12.73;;;6.63;;
8716;SDS011;4395;48.554;8.820;2023-06-22T07:44:03;9.70;;;6.20;;
8716;SDS011;4395;48.554;8.820;2023-06-22T07:46:06;9.10;;;6.23;;
8716;SDS011;4395;48.554;8.820;2023-06-22T07:48:09;9.10;;;6.20;;
8716;SDS011;4395;48.554;8.820;2023-06-22T07:50:13;7.90;;;6.10;;
8716;SDS011;4395;48.554;8.820;2023-06-22T07:52:16;9.07;;;6.73;;
8716;SDS011;4395;48.554;8.820;2023-06-22T07:54:19;9.33;;;6.00;;
8716;SDS011;4395;48.554;8.820;2023-06-22T07:56:21;10.90;;;7.13;;
8716;SDS011;4395;48.554;8.820;2023-06-22T07:58:24;8.33;;;6.17;;
8716;SDS011;4395;48.554;8.820;2023-06-22T08:00:27;11.90;;;6.43;;
8716;SDS011;4395;48.554;8.820;2023-06-22T08:02:30;7.83;;;5.90;;
8716;SDS011;4395;48.554;8.820;2023-06-22T08:04:32;10.03;;;6.00;;
8716;SDS011;4395;48.554;8.820;2023-06-22T08:06:39;8.47;;;6.47;;
8716;SDS011;4395;48.554;8.820;2023-06-22T08:08:42;11.17;;;6.00;;
8716;SDS011;4395;48.554;8.820;2023-06-22T08:10:45;7.33;;;6.27;;
8716;SDS011;4395;48.554;8.820;2023-06-22T08:12:47;9.13;;;6.10;;
8716;SDS011;4395;48.554;8.820;2023-06-22T08:14:50;10.67;;;6.20;;
8716;SDS011;4395;48.554;8.820;2023-06-22T08:16:53;10.43;;;6.83;;
8716;SDS011;4395;48.554;8.820;2023-06-22T08:18:56;9.43;;;6.47;;
8716;SDS011;4395;48.554;8.820;2023-06-22T08:20:59;9.70;;;6.53;;
8716;SDS011;4395;48.554;8.820;2023-06-22T08:23:05;9.27;;;5.70;;
8716;SDS011;4395;48.554;8.820;2023-06-22T08:25:09;9.77;;;6.10;;
8716;SDS011;4395;48.554;8.820;2023-06-22T08:27:12;9.83;;;6.30;;
8716;SDS011;4395;48.554;8.820;2023-06-22T08:29:16;10.47;;;5.90;;
8716;SDS011;4395;48.554;8.820;2023-06-22T08:31:18;10.37;;;6.30;;
8716;SDS011;4395;48.554;8.820;2023-06-22T08:33:21;7.03;;;5.90;;
8716;SDS011;4395;48.554;8.820;2023-06-22T08:35:29;9.03;;;6.70;;
8716;SDS011;4395;48.554;8.820;2023-06-22T08:37:32;8.67;;;6.33;;
8716;SDS011;4395;48.554;8.820;2023-06-22T08:39:38;9.63;;;6.00;;
8716;SDS011;4395;48.554;8.820;2023-06-22T08:41:41;11.77;;;6.53;;
8716;SDS011;4395;48.554;8.820;2023-06-22T08:43:44;9.30;;;6.00;;
8716;SDS011;4395;48.554;8.820;2023-06-22T08:45:46;9.27;;;5.80;;
8716;SDS011;4395;48.554;8.820;2023-06-22T08:47:49;13.50;;;6.47;;
8716;SDS011;4395;48.554;8.820;2023-06-22T08:49:52;8.37;;;6.33;;
8716;SDS011;4395;48.554;8.820;2023-06-22T08:51:55;10.77;;;6.30;;
8716;SDS011;4395;48.554;8.820;2023-06-22T08:53:58;11.77;;;6.70;;
8716;SDS011;4395;48.554;8.820;2023-06-22T08:56:02;8.30;;;6.00;;
8716;SDS011;4395;48.554;8.820;2023-06-22T08:58:05;9.93;;;6.43;;
8716;SDS011;4395;48.554;8.820;2023-06-22T09:00:08;9.47;;;6.00;;
8716;SDS011;4395;48.554;8.820;2023-06-22T09:02:17;13.03;;;6.77;;
8716;SDS011;4395;48.554;8.820;2023-06-22T09:04:20;10.47;;;6.13;;
8716;SDS011;4395;48.554;8.820;2023-06-22T09:06:24;10.80;;;6.23;;
8716;SDS011;4395;48.554;8.820;2023-06-22T09:08:27;9.77;;;6.40;;
8716;SDS011;4395;48.554;8.820;2023-06-22T09:10:30;6.23;;;5.63;;
8716;SDS011;4395;48.554;8.820;2023-06-22T09:12:35;9.70;;;5.77;;
8716;SDS011;4395;48.554;8.820;2023-06-22T09:14:39;8.33;;;6.10;;
8716;SDS011;4395;48.554;8.820;2023-06-22T09:16:42;9.33;;;6.17;;
8716;SDS011;4395;48.554;8.820;2023-06-22T09:18:48;10.97;;;6.53;;
8716;SDS011;4395;48.554;8.820;2023-06-22T09:20:50;12.63;;;6.80;;
8716;SDS011;4395;48.554;8.820;2023-06-22T09:22:53;9.97;;;6.20;;
8716;SDS011;4395;48.554;8.820;2023-06-22T09:24:58;8.30;;;5.30;;
8716;SDS011;4395;48.554;8.820;2023-06-22T09:27:01;9.90;;;5.87;;
8716;SDS011;4395;48.554;8.820;2023-06-22T09:29:05;9.10;;;6.10;;
8716;SDS011;4395;48.554;8.820;2023-06-22T09:31:08;9.10;;;6.40;;
8716;SDS011;4395;48.554;8.820;2023-06-22T09:33:11;8.90;;;6.00;;
8716;SDS011;4395;48.554;8.820;2023-06-22T09:35:14;7.33;;;5.90;;
8716;SDS011;4395;48.554;8.820;2023-06-22T09:37:17;10.07;;;6.57;;
8716;SDS011;4395;48.554;8.820;2023-06-22T09:39:19;13.90;;;6.93;;
8716;SDS011;4395;48.554;8.820;2023-06-22T09:41:22;12.80;;;6.17;;
8716;SDS011;4395;48.554;8.820;2023-06-22T09:43:25;9.20;;;6.43;;
8716;SDS011;4395;48.554;8.820;2023-06-22T09:45:29;12.67;;;5.97;;
8716;SDS011;4395;48.554;8.820;2023-06-22T09:47:32;12.93;;;6.10;;
8716;SDS011;4395;48.554;8.820;2023-06-22T09:49:35;11.73;;;5.83;;
8716;SDS011;4395;48.554;8.820;2023-06-22T09:51:49;11.17;;;6.07;;
8716;SDS011;4395;48.554;8.820;2023-06-22T09:53:52;11.37;;;6.43;;
8716;SDS011;4395;48.554;8.820;2023-06-22T09:55:56;9.93;;;6.07;;
8716;SDS011;4395;48.554;8.820;2023-06-22T09:57:59;7.90;;;5.87;;
8716;SDS011;4395;48.554;8.820;2023-06-22T10:00:02;8.10;;;5.83;;
8716;SDS011;4395;48.554;8.820;2023-06-22T10:02:11;10.30;;;5.80;;
8716;SDS011;4395;48.554;8.820;2023-06-22T10:04:14;9.20;;;5.63;;
8716;SDS011;4395;48.554;8.820;2023-06-22T10:06:17;13.33;;;6.07;;
8716;SDS011;4395;48.554;8.820;2023-06-22T10:08:20;10.90;;;6.17;;
8716;SDS011;4395;48.554;8.820;2023-06-22T10:10:23;12.07;;;5.83;;
8716;SDS011;4395;48.554;8.820;2023-06-22T10:12:27;8.67;;;6.00;;
8716;SDS011;4395;48.554;8.820;2023-06-22T10:14:30;11.03;;;5.77;;
8716;SDS011;4395;48.554;8.820;2023-06-22T10:16:32;10.27;;;5.67;;
8716;SDS011;4395;48.554;8.820;2023-06-22T10:18:38;7.53;;;4.97;;
8716;SDS011;4395;48.554;8.820;2023-06-22T10:20:41;8.07;;;5.60;;
8716;SDS011;4395;48.554;8.820;2023-06-22T10:22:44;10.97;;;5.93;;
8716;SDS011;4395;48.554;8.820;2023-06-22T10:24:47;11.67;;;6.20;;
8716;SDS011;4395;48.554;8.820;2023-06-22T10:26:50;10.27;;;5.87;;
8716;SDS011;4395;48.554;8.820;2023-06-22T10:28:53;8.83;;;5.53;;
8716;SDS011;4395;48.554;8.820;2023-06-22T10:31:15;9.10;;;6.10;;
8716;SDS011;4395;48.554;8.820;2023-06-22T10:33:18;9.37;;;6.23;;
8716;SDS011;4395;48.554;8.820;2023-06-22T10:35:23;10.80;;;7.00;;
8716;SDS011;4395;48.554;8.820;2023-06-22T10:37:25;10.10;;;6.10;;
8716;SDS011;4395;48.554;8.820;2023-06-22T10:39:28;10.57;;;6.93;;
8716;SDS011;4395;48.554;8.820;2023-06-22T10:41:31;8.73;;;5.90;;
8716;SDS011;4395;48.554;8.820;2023-06-22T10:43:35;12.10;;;6.50;;
8716;SDS011;4395;48.554;8.820;2023-06-22T10:45:38;10.80;;;5.77;;
8716;SDS011;4395;48.554;8.820;2023-06-22T10:47:41;10.40;;;6.07;;
8716;SDS011;4395;48.554;8.820;2023-06-22T10:49:44;10.53;;;5.90;;
8716;SDS011;4395;48.554;8.820;2023-06-22T10:51:48;12.03;;;6.20;;
8716;SDS011;4395;48.554;8.820;2023-06-22T10:53:51;14.67;;;6.37;;
8716;SDS011;4395;48.554;8.820;2023-06-22T10:55:54;9.47;;;6.03;;
8716;SDS011;4395;48.554;8.820;2023-06-22T10:57:58;8.47;;;6.50;;
8716;SDS011;4395;48.554;8.820;2023-06-22T11:00:01;13.33;;;6.53;;
8716;SDS011;4395;48.554;8.820;2023-06-22T11:02:06;8.73;;;5.90;;
8716;SDS011;4395;48.554;8.820;2023-06-22T11:04:09;14.80;;;6.67;;
8716;SDS011;4395;48.554;8.820;2023-06-22T11:06:12;10.90;;;6.20;;
8716;SDS011;4395;48.554;8.820;2023-06-22T11:08:17;16.57;;;6.67;;
8716;SDS011;4395;48.554;8.820;2023-06-22T11:10:20;12.47;;;6.13;;
8716;SDS011;4395;48.554;8.820;2023-06-22T11:12:23;12.33;;;6.27;;
8716;SDS011;4395;48.554;8.820;2023-06-22T11:14:26;10.93;;;5.83;;
8716;SDS011;4395;48.554;8.820;2023-06-22T11:16:29;12.73;;;6.27;;
8716;SDS011;4395;48.554;8.820;2023-06-22T11:18:32;10.43;;;6.20;;
8716;SDS011;4395;48.554;8.820;2023-06-22T11:20:35;11.70;;;6.03;;
8716;SDS011;4395;48.554;8.820;2023-06-22T11:22:40;11.30;;;6.03;;
8716;SDS011;4395;48.554;8.820;2023-06-22T11:24:45;14.03;;;6.50;;
8716;SDS011;4395;48.554;8.820;2023-06-22T11:26:47;9.70;;;6.00;;
8716;SDS011;4395;48.554;8.820;2023-06-22T11:28:50;14.00;;;6.17;;
8716;SDS011;4395;48.554;8.820;2023-06-22T11:30:53;13.43;;;5.90;;
8716;SDS011;4395;48.554;8.820;2023-06-22T11:32:56;11.03;;;6.20;;
8716;SDS011;4395;48.554;8.820;2023-06-22T11:34:59;11.13;;;6.43;;
8716;SDS011;4395;48.554;8.820;2023-06-22T11:37:01;10.00;;;6.30;;
8716;SDS011;4395;48.554;8.820;2023-06-22T11:39:04;8.90;;;6.33;;
8716;SDS011;4395;48.554;8.820;2023-06-22T11:41:09;9.07;;;5.83;;
8716;SDS011;4395;48.554;8.820;2023-06-22T11:43:12;10.47;;;6.20;;
8716;SDS011;4395;48.554;8.820;2023-06-22T11:45:16;14.20;;;6.47;;
8716;SDS011;4395;48.554;8.820;2023-06-22T11:47:20;11.57;;;6.37;;
8716;SDS011;4395;48.554;8.820;2023-06-22T11:49:23;11.33;;;6.40;;
8716;SDS011;4395;48.554;8.820;2023-06-22T11:51:25;11.60;;;6.37;;
8716;SDS011;4395;48.554;8.820;2023-06-22T11:53:28;8.40;;;5.30;;
8716;SDS011;4395;48.554;8.820;2023-06-22T11:55:32;10.77;;;6.10;;
8716;SDS011;4395;48.554;8.820;2023-06-22T11:57:36;11.30;;;6.70;;
8716;SDS011;4395;48.554;8.820;2023-06-22T11:59:39;10.53;;;6.17;;
8716;SDS011;4395;48.554;8.820;2023-06-22T12:01:42;13.93;;;6.33;;
8716;SDS011;4395;48.554;8.820;2023-06-22T12:03:45;7.73;;;6.20;;
8716;SDS011;4395;48.554;8.820;2023-06-22T12:05:49;10.73;;;5.70;;
8716;SDS011;4395;48.554;8.820;2023-06-22T12:07:52;9.97;;;6.07;;
8716;SDS011;4395;48.554;8.820;2023-06-22T12:09:55;9.83;;;5.67;;
8716;SDS011;4395;48.554;8.820;2023-06-22T12:11:58;10.60;;;5.83;;
8716;SDS011;4395;48.554;8.820;2023-06-22T12:14:02;10.43;;;5.90;;
8716;SDS011;4395;48.554;8.820;2023-06-22T12:16:06;10.63;;;5.73;;
8716;SDS011;4395;48.554;8.820;2023-06-22T12:18:09;9.27;;;6.00;;
8716;SDS011;4395;48.554;8.820;2023-06-22T12:20:12;17.63;;;6.53;;
8716;SDS011;4395;48.554;8.820;2023-06-22T12:22:14;11.70;;;6.23;;
8716;SDS011;4395;48.554;8.820;2023-06-22T12:24:17;11.63;;;6.03;;
8716;SDS011;4395;48.554;8.820;2023-06-22T12:26:20;9.03;;;6.00;;
8716;SDS011;4395;48.554;8.820;2023-06-22T12:28:23;10.17;;;5.60;;
8716;SDS011;4395;48.554;8.820;2023-06-22T12:30:27;9.10;;;6.30;;
8716;SDS011;4395;48.554;8.820;2023-06-22T12:32:30;13.47;;;6.27;;
8716;SDS011;4395;48.554;8.820;2023-06-22T12:34:33;12.63;;;6.33;;
8716;SDS011;4395;48.554;8.820;2023-06-22T12:36:36;11.63;;;6.40;;
8716;SDS011;4395;48.554;8.820;2023-06-22T12:38:39;11.40;;;6.07;;
8716;SDS011;4395;48.554;8.820;2023-06-22T12:40:41;11.67;;;6.33;;
8716;SDS011;4395;48.554;8.820;2023-06-22T12:42:44;14.57;;;6.23;;